sensor_id;sensor_type;location;lat;lon;timestamp;P1;durP1;ratioP1;P2;durP2;ratioP2
9712;SDS011;4895;50.926;6.870;2022-12-10T00:03:31;59.67;;;28.93;;
9712;SDS011;4895;50.926;6.870;2022-12-10T00:05:59;48.83;;;26.37;;
9712;SDS011;4895;50.926;6.870;2022-12-10T00:08:28;53.33;;;27.57;;
9712;SDS011;4895;50.926;6.870;2022-12-10T00:10:54;66.67;;;27.43;;
9712;SDS011;4895;50.926;6.870;2022-12-10T00:13:19;61.90;;;29.30;;
9712;SDS011;4895;50.926;6.870;2022-12-10T00:15:44;49.40;;;26.43;;
9712;SDS011;4895;50.926;6.870;2022-12-10T00:18:10;52.50;;;26.67;;
9712;SDS011;4895;50.926;6.870;2022-12-10T00:20:38;58.97;;;27.83;;
9712;SDS011;4895;50.926;6.870;2022-12-10T00:23:03;53.97;;;28.07;;
9712;SDS011;4895;50.926;6.870;2022-12-10T00:25:29;49.80;;;27.47;;
9712;SDS011;4895;50.926;6.870;2022-12-10T00:27:54;54.77;;;26.73;;
9712;SDS011;4895;50.926;6.870;2022-12-10T00:30:19;58.90;;;26.77;;
9712;SDS011;4895;50.926;6.870;2022-12-10T00:32:44;54.50;;;27.37;;
9712;SDS011;4895;50.926;6.870;2022-12-10T00:35:10;56.10;;;26.90;;
9712;SDS011;4895;50.926;6.870;2022-12-10T00:37:35;58.73;;;27.80;;
9712;SDS011;4895;50.926;6.870;2022-12-10T00:40:00;60.20;;;27.90;;
9712;SDS011;4895;50.926;6.870;2022-12-10T00:42:26;50.40;;;26.17;;
9712;SDS011;4895;50.926;6.870;2022-12-10T00:44:51;49.53;;;25.23;;
9712;SDS011;4895;50.926;6.870;2022-12-10T00:47:16;51.50;;;26.50;;
9712;SDS011;4895;50.926;6.870;2022-12-10T00:49:41;54.40;;;27.27;;
9712;SDS011;4895;50.926;6.870;2022-12-10T00:52:07;68.57;;;29.53;;
9712;SDS011;4895;50.926;6.870;2022-12-10T00:54:32;58.27;;;27.70;;
9712;SDS011;4895;50.926;6.870;2022-12-10T00:56:57;55.70;;;27.43;;
9712;SDS011;4895;50.926;6.870;2022-12-10T00:59:23;59.20;;;28.30;;
9712;SDS011;4895;50.926;6.870;2022-12-10T01:01:48;55.57;;;27.87;;
9712;SDS011;4895;50.926;6.870;2022-12-10T01:04:15;63.30;;;27.70;;
9712;SDS011;4895;50.926;6.870;2022-12-10T01:06:42;60.73;;;27.10;;
9712;SDS011;4895;50.926;6.870;2022-12-10T01:09:11;56.00;;;27.27;;
9712;SDS011;4895;50.926;6.870;2022-12-10T01:11:39;54.37;;;28.47;;
9712;SDS011;4895;50.926;6.870;2022-12-10T01:14:06;50.40;;;26.33;;
9712;SDS011;4895;50.926;6.870;2022-12-10T01:16:33;48.27;;;26.20;;
9712;SDS011;4895;50.926;6.870;2022-12-10T01:18:58;54.17;;;27.90;;
9712;SDS011;4895;50.926;6.870;2022-12-10T01:21:24;58.30;;;26.77;;
9712;SDS011;4895;50.926;6.870;2022-12-10T01:23:51;54.70;;;26.00;;
9712;SDS011;4895;50.926;6.870;2022-12-10T01:26:18;57.17;;;27.87;;
9712;SDS011;4895;50.926;6.870;2022-12-10T01:28:48;51.00;;;24.77;;
9712;SDS011;4895;50.926;6.870;2022-12-10T01:31:15;57.43;;;27.63;;
9712;SDS011;4895;50.926;6.870;2022-12-10T01:33:42;58.70;;;27.90;;
9712;SDS011;4895;50.926;6.870;2022-12-10T01:38:35;52.90;;;24.90;;
9712;SDS011;4895;50.926;6.870;2022-12-10T01:41:01;50.40;;;26.37;;
9712;SDS011;4895;50.926;6.870;2022-12-10T01:43:26;50.80;;;25.17;;
9712;SDS011;4895;50.926;6.870;2022-12-10T01:45:52;54.40;;;27.20;;
9712;SDS011;4895;50.926;6.870;2022-12-10T01:48:18;52.97;;;25.20;;
9712;SDS011;4895;50.926;6.870;2022-12-10T01:50:43;52.53;;;26.57;;
9712;SDS011;4895;50.926;6.870;2022-12-10T01:53:09;52.53;;;26.90;;
9712;SDS011;4895;50.926;6.870;2022-12-10T01:55:55;56.20;;;27.40;;
9712;SDS011;4895;50.926;6.870;2022-12-10T01:58:20;55.17;;;27.10;;
9712;SDS011;4895;50.926;6.870;2022-12-10T02:01:05;61.13;;;27.73;;
9712;SDS011;4895;50.926;6.870;2022-12-10T02:03:36;58.70;;;27.23;;
9712;SDS011;4895;50.926;6.870;2022-12-10T02:06:15;58.30;;;28.00;;
9712;SDS011;4895;50.926;6.870;2022-12-10T02:12:11;53.20;;;26.00;;
9712;SDS011;4895;50.926;6.870;2022-12-10T02:14:49;56.13;;;26.40;;
9712;SDS011;4895;50.926;6.870;2022-12-10T02:17:20;57.23;;;26.73;;
9712;SDS011;4895;50.926;6.870;2022-12-10T02:20:22;49.47;;;24.53;;
9712;SDS011;4895;50.926;6.870;2022-12-10T02:22:45;55.80;;;25.80;;
9712;SDS011;4895;50.926;6.870;2022-12-10T02:25:17;55.20;;;26.90;;
9712;SDS011;4895;50.926;6.870;2022-12-10T02:27:51;52.87;;;26.37;;
9712;SDS011;4895;50.926;6.870;2022-12-10T02:30:22;55.53;;;26.53;;
9712;SDS011;4895;50.926;6.870;2022-12-10T02:32:48;54.50;;;26.40;;
9712;SDS011;4895;50.926;6.870;2022-12-10T02:35:25;49.07;;;25.80;;
9712;SDS011;4895;50.926;6.870;2022-12-10T02:37:53;47.57;;;24.67;;
9712;SDS011;4895;50.926;6.870;2022-12-10T02:40:23;48.57;;;24.27;;
9712;SDS011;4895;50.926;6.870;2022-12-10T02:42:51;52.50;;;25.93;;
9712;SDS011;4895;50.926;6.870;2022-12-10T02:45:18;54.03;;;26.93;;
9712;SDS011;4895;50.926;6.870;2022-12-10T02:47:43;54.63;;;27.07;;
9712;SDS011;4895;50.926;6.870;2022-12-10T02:50:09;53.03;;;26.80;;
9712;SDS011;4895;50.926;6.870;2022-12-10T02:52:35;56.73;;;27.27;;
9712;SDS011;4895;50.926;6.870;2022-12-10T02:55:01;56.43;;;26.43;;
9712;SDS011;4895;50.926;6.870;2022-12-10T02:57:35;63.57;;;28.30;;
9712;SDS011;4895;50.926;6.870;2022-12-10T03:05:19;50.43;;;26.20;;
9712;SDS011;4895;50.926;6.870;2022-12-10T03:07:57;53.23;;;25.37;;
9712;SDS011;4895;50.926;6.870;2022-12-10T03:12:59;54.87;;;27.40;;
9712;SDS011;4895;50.926;6.870;2022-12-10T03:15:26;54.43;;;26.70;;
9712;SDS011;4895;50.926;6.870;2022-12-10T03:17:53;55.20;;;28.13;;
9712;SDS011;4895;50.926;6.870;2022-12-10T03:20:19;50.13;;;25.00;;
9712;SDS011;4895;50.926;6.870;2022-12-10T03:22:45;54.43;;;27.33;;
9712;SDS011;4895;50.926;6.870;2022-12-10T03:25:13;63.37;;;29.00;;
9712;SDS011;4895;50.926;6.870;2022-12-10T03:27:41;50.30;;;25.37;;
9712;SDS011;4895;50.926;6.870;2022-12-10T03:30:08;55.80;;;26.90;;
9712;SDS011;4895;50.926;6.870;2022-12-10T03:32:34;56.60;;;26.57;;
9712;SDS011;4895;50.926;6.870;2022-12-10T03:34:59;55.77;;;26.40;;
9712;SDS011;4895;50.926;6.870;2022-12-10T03:37:25;55.50;;;25.90;;
9712;SDS011;4895;50.926;6.870;2022-12-10T03:39:52;58.60;;;27.33;;
9712;SDS011;4895;50.926;6.870;2022-12-10T03:42:17;57.20;;;25.07;;
9712;SDS011;4895;50.926;6.870;2022-12-10T03:44:42;58.37;;;26.70;;
9712;SDS011;4895;50.926;6.870;2022-12-10T03:47:09;63.20;;;29.10;;
9712;SDS011;4895;50.926;6.870;2022-12-10T03:49:36;62.53;;;28.60;;
9712;SDS011;4895;50.926;6.870;2022-12-10T03:52:01;62.00;;;28.73;;
9712;SDS011;4895;50.926;6.870;2022-12-10T03:54:27;60.17;;;27.23;;
9712;SDS011;4895;50.926;6.870;2022-12-10T03:56:52;58.97;;;28.70;;
9712;SDS011;4895;50.926;6.870;2022-12-10T03:59:18;55.90;;;27.13;;
9712;SDS011;4895;50.926;6.870;2022-12-10T04:01:43;59.00;;;26.40;;
9712;SDS011;4895;50.926;6.870;2022-12-10T04:04:08;56.00;;;25.97;;
9712;SDS011;4895;50.926;6.870;2022-12-10T04:06:34;56.47;;;27.27;;
9712;SDS011;4895;50.926;6.870;2022-12-10T04:08:59;58.60;;;26.47;;
9712;SDS011;4895;50.926;6.870;2022-12-10T04:11:25;51.63;;;27.60;;
9712;SDS011;4895;50.926;6.870;2022-12-10T04:13:51;58.27;;;27.47;;
9712;SDS011;4895;50.926;6.870;2022-12-10T04:16:36;57.13;;;26.30;;
9712;SDS011;4895;50.926;6.870;2022-12-10T04:19:03;57.87;;;27.13;;
9712;SDS011;4895;50.926;6.870;2022-12-10T04:21:30;55.13;;;26.27;;
9712;SDS011;4895;50.926;6.870;2022-12-10T04:24:16;56.30;;;26.93;;
9712;SDS011;4895;50.926;6.870;2022-12-10T04:27:06;56.07;;;26.00;;
9712;SDS011;4895;50.926;6.870;2022-12-10T04:29:36;58.37;;;26.40;;
9712;SDS011;4895;50.926;6.870;2022-12-10T04:32:01;56.37;;;26.20;;
9712;SDS011;4895;50.926;6.870;2022-12-10T04:34:27;54.30;;;24.60;;
9712;SDS011;4895;50.926;6.870;2022-12-10T04:36:52;50.60;;;24.03;;
9712;SDS011;4895;50.926;6.870;2022-12-10T04:39:18;48.53;;;23.57;;
9712;SDS011;4895;50.926;6.870;2022-12-10T04:41:45;52.17;;;24.20;;
9712;SDS011;4895;50.926;6.870;2022-12-10T04:44:10;46.53;;;22.93;;
9712;SDS011;4895;50.926;6.870;2022-12-10T04:46:37;54.50;;;24.77;;
9712;SDS011;4895;50.926;6.870;2022-12-10T04:49:03;48.87;;;22.83;;
9712;SDS011;4895;50.926;6.870;2022-12-10T04:51:29;43.00;;;21.43;;
9712;SDS011;4895;50.926;6.870;2022-12-10T04:53:55;56.80;;;25.60;;
9712;SDS011;4895;50.926;6.870;2022-12-10T04:56:20;55.97;;;25.17;;
9712;SDS011;4895;50.926;6.870;2022-12-10T04:58:46;51.77;;;24.07;;
9712;SDS011;4895;50.926;6.870;2022-12-10T05:01:11;50.90;;;24.67;;
9712;SDS011;4895;50.926;6.870;2022-12-10T05:03:37;51.43;;;24.97;;
9712;SDS011;4895;50.926;6.870;2022-12-10T05:06:04;48.27;;;24.37;;
9712;SDS011;4895;50.926;6.870;2022-12-10T05:08:31;58.43;;;25.60;;
9712;SDS011;4895;50.926;6.870;2022-12-10T05:11:03;61.53;;;23.97;;
9712;SDS011;4895;50.926;6.870;2022-12-10T05:13:30;48.40;;;23.10;;
9712;SDS011;4895;50.926;6.870;2022-12-10T05:15:56;47.67;;;23.60;;
9712;SDS011;4895;50.926;6.870;2022-12-10T05:18:21;53.57;;;25.07;;
9712;SDS011;4895;50.926;6.870;2022-12-10T05:20:47;53.77;;;23.87;;
9712;SDS011;4895;50.926;6.870;2022-12-10T05:23:12;53.97;;;24.73;;
9712;SDS011;4895;50.926;6.870;2022-12-10T05:25:59;56.50;;;24.07;;
9712;SDS011;4895;50.926;6.870;2022-12-10T05:28:29;49.37;;;24.03;;
9712;SDS011;4895;50.926;6.870;2022-12-10T05:30:56;50.57;;;24.60;;
9712;SDS011;4895;50.926;6.870;2022-12-10T05:33:21;56.67;;;24.87;;
9712;SDS011;4895;50.926;6.870;2022-12-10T05:35:57;47.47;;;23.43;;
9712;SDS011;4895;50.926;6.870;2022-12-10T05:38:24;52.17;;;24.40;;
9712;SDS011;4895;50.926;6.870;2022-12-10T05:40:50;49.83;;;24.27;;
9712;SDS011;4895;50.926;6.870;2022-12-10T05:43:16;53.60;;;23.27;;
9712;SDS011;4895;50.926;6.870;2022-12-10T05:45:41;64.73;;;27.27;;
9712;SDS011;4895;50.926;6.870;2022-12-10T05:48:08;52.00;;;25.03;;
9712;SDS011;4895;50.926;6.870;2022-12-10T05:50:34;59.13;;;26.50;;
9712;SDS011;4895;50.926;6.870;2022-12-10T05:52:59;56.67;;;26.93;;
9712;SDS011;4895;50.926;6.870;2022-12-10T05:55:25;58.17;;;27.00;;
9712;SDS011;4895;50.926;6.870;2022-12-10T05:57:52;55.20;;;26.57;;
9712;SDS011;4895;50.926;6.870;2022-12-10T06:00:17;52.30;;;25.43;;
9712;SDS011;4895;50.926;6.870;2022-12-10T06:02:42;55.63;;;26.97;;
9712;SDS011;4895;50.926;6.870;2022-12-10T06:05:08;54.90;;;25.17;;
9712;SDS011;4895;50.926;6.870;2022-12-10T06:07:33;62.50;;;23.90;;
9712;SDS011;4895;50.926;6.870;2022-12-10T06:09:58;44.90;;;22.63;;
9712;SDS011;4895;50.926;6.870;2022-12-10T06:12:23;50.87;;;24.53;;
9712;SDS011;4895;50.926;6.870;2022-12-10T06:14:49;58.10;;;25.47;;
9712;SDS011;4895;50.926;6.870;2022-12-10T06:17:14;72.27;;;23.90;;
9712;SDS011;4895;50.926;6.870;2022-12-10T06:19:39;51.40;;;25.00;;
9712;SDS011;4895;50.926;6.870;2022-12-10T06:22:05;47.57;;;22.40;;
9712;SDS011;4895;50.926;6.870;2022-12-10T06:24:30;55.83;;;26.20;;
9712;SDS011;4895;50.926;6.870;2022-12-10T06:26:55;48.67;;;24.67;;
9712;SDS011;4895;50.926;6.870;2022-12-10T06:29:20;50.80;;;23.90;;
9712;SDS011;4895;50.926;6.870;2022-12-10T06:31:46;51.13;;;25.47;;
9712;SDS011;4895;50.926;6.870;2022-12-10T06:34:11;47.73;;;23.70;;
9712;SDS011;4895;50.926;6.870;2022-12-10T06:36:37;48.70;;;24.50;;
9712;SDS011;4895;50.926;6.870;2022-12-10T06:39:02;50.20;;;24.10;;
9712;SDS011;4895;50.926;6.870;2022-12-10T06:41:28;53.90;;;25.90;;
9712;SDS011;4895;50.926;6.870;2022-12-10T06:43:53;58.10;;;27.20;;
9712;SDS011;4895;50.926;6.870;2022-12-10T06:46:23;56.67;;;26.10;;
9712;SDS011;4895;50.926;6.870;2022-12-10T06:48:48;52.90;;;25.10;;
9712;SDS011;4895;50.926;6.870;2022-12-10T06:51:13;66.17;;;27.30;;
9712;SDS011;4895;50.926;6.870;2022-12-10T06:53:39;61.83;;;25.60;;
9712;SDS011;4895;50.926;6.870;2022-12-10T06:56:05;68.90;;;27.27;;
9712;SDS011;4895;50.926;6.870;2022-12-10T06:58:32;76.47;;;28.00;;
9712;SDS011;4895;50.926;6.870;2022-12-10T07:01:03;84.73;;;29.30;;
9712;SDS011;4895;50.926;6.870;2022-12-10T07:03:32;71.70;;;28.87;;
9712;SDS011;4895;50.926;6.870;2022-12-10T07:05:58;93.03;;;32.20;;
9712;SDS011;4895;50.926;6.870;2022-12-10T07:08:24;108.47;;;34.10;;
9712;SDS011;4895;50.926;6.870;2022-12-10T07:10:49;112.70;;;36.83;;
9712;SDS011;4895;50.926;6.870;2022-12-10T07:13:15;125.87;;;37.70;;
9712;SDS011;4895;50.926;6.870;2022-12-10T07:15:40;121.73;;;37.43;;
9712;SDS011;4895;50.926;6.870;2022-12-10T07:18:05;138.47;;;38.27;;
9712;SDS011;4895;50.926;6.870;2022-12-10T07:20:30;132.93;;;39.57;;
9712;SDS011;4895;50.926;6.870;2022-12-10T07:22:56;131.07;;;39.97;;
9712;SDS011;4895;50.926;6.870;2022-12-10T07:25:21;119.17;;;38.30;;
9712;SDS011;4895;50.926;6.870;2022-12-10T07:27:46;131.57;;;39.50;;
9712;SDS011;4895;50.926;6.870;2022-12-10T07:30:11;108.73;;;38.20;;
9712;SDS011;4895;50.926;6.870;2022-12-10T07:32:37;122.67;;;38.80;;
9712;SDS011;4895;50.926;6.870;2022-12-10T07:35:02;109.03;;;37.40;;
9712;SDS011;4895;50.926;6.870;2022-12-10T07:37:28;110.07;;;33.13;;
9712;SDS011;4895;50.926;6.870;2022-12-10T07:39:53;110.57;;;34.73;;
9712;SDS011;4895;50.926;6.870;2022-12-10T07:42:18;112.70;;;37.70;;
9712;SDS011;4895;50.926;6.870;2022-12-10T07:44:44;122.67;;;37.87;;
9712;SDS011;4895;50.926;6.870;2022-12-10T07:47:09;99.80;;;33.80;;
9712;SDS011;4895;50.926;6.870;2022-12-10T07:49:34;107.53;;;33.97;;
9712;SDS011;4895;50.926;6.870;2022-12-10T07:52:00;92.33;;;35.00;;
9712;SDS011;4895;50.926;6.870;2022-12-10T07:54:25;119.63;;;32.90;;
9712;SDS011;4895;50.926;6.870;2022-12-10T07:56:50;107.07;;;34.00;;
9712;SDS011;4895;50.926;6.870;2022-12-10T07:59:16;99.97;;;35.20;;
9712;SDS011;4895;50.926;6.870;2022-12-10T08:01:41;106.90;;;35.53;;
9712;SDS011;4895;50.926;6.870;2022-12-10T08:04:06;104.03;;;35.93;;
9712;SDS011;4895;50.926;6.870;2022-12-10T08:06:32;96.93;;;34.53;;
9712;SDS011;4895;50.926;6.870;2022-12-10T08:08:58;109.23;;;34.73;;
9712;SDS011;4895;50.926;6.870;2022-12-10T08:11:24;111.73;;;39.47;;
9712;SDS011;4895;50.926;6.870;2022-12-10T08:13:49;112.33;;;39.60;;
9712;SDS011;4895;50.926;6.870;2022-12-10T08:16:16;119.80;;;38.67;;
9712;SDS011;4895;50.926;6.870;2022-12-10T08:18:43;97.17;;;34.57;;
9712;SDS011;4895;50.926;6.870;2022-12-10T08:21:10;97.43;;;34.77;;
9712;SDS011;4895;50.926;6.870;2022-12-10T08:23:37;93.47;;;36.13;;
9712;SDS011;4895;50.926;6.870;2022-12-10T08:26:03;105.70;;;35.77;;
9712;SDS011;4895;50.926;6.870;2022-12-10T08:28:32;93.43;;;33.70;;
9712;SDS011;4895;50.926;6.870;2022-12-10T08:30:57;101.90;;;36.30;;
9712;SDS011;4895;50.926;6.870;2022-12-10T08:33:23;102.73;;;36.00;;
9712;SDS011;4895;50.926;6.870;2022-12-10T08:35:48;106.40;;;37.90;;
9712;SDS011;4895;50.926;6.870;2022-12-10T08:38:13;97.80;;;35.60;;
9712;SDS011;4895;50.926;6.870;2022-12-10T08:40:39;88.83;;;36.13;;
9712;SDS011;4895;50.926;6.870;2022-12-10T08:43:06;90.67;;;35.63;;
9712;SDS011;4895;50.926;6.870;2022-12-10T08:45:31;112.60;;;38.63;;
9712;SDS011;4895;50.926;6.870;2022-12-10T08:47:56;105.73;;;36.67;;
9712;SDS011;4895;50.926;6.870;2022-12-10T08:50:22;97.57;;;38.57;;
9712;SDS011;4895;50.926;6.870;2022-12-10T08:52:47;108.37;;;36.77;;
9712;SDS011;4895;50.926;6.870;2022-12-10T08:55:12;102.57;;;37.30;;
9712;SDS011;4895;50.926;6.870;2022-12-10T08:57:37;106.27;;;38.03;;
9712;SDS011;4895;50.926;6.870;2022-12-10T09:00:03;103.00;;;38.10;;
9712;SDS011;4895;50.926;6.870;2022-12-10T09:02:30;97.60;;;35.50;;
9712;SDS011;4895;50.926;6.870;2022-12-10T09:04:55;102.87;;;38.47;;
9712;SDS011;4895;50.926;6.870;2022-12-10T09:07:20;98.47;;;38.70;;
9712;SDS011;4895;50.926;6.870;2022-12-10T09:09:46;108.57;;;38.33;;
9712;SDS011;4895;50.926;6.870;2022-12-10T09:12:11;106.27;;;38.43;;
9712;SDS011;4895;50.926;6.870;2022-12-10T09:14:37;105.97;;;37.00;;
9712;SDS011;4895;50.926;6.870;2022-12-10T09:17:03;108.77;;;38.37;;
9712;SDS011;4895;50.926;6.870;2022-12-10T09:19:29;103.27;;;36.53;;
9712;SDS011;4895;50.926;6.870;2022-12-10T09:21:54;106.90;;;38.10;;
9712;SDS011;4895;50.926;6.870;2022-12-10T09:24:20;105.73;;;39.97;;
9712;SDS011;4895;50.926;6.870;2022-12-10T09:26:45;101.77;;;38.10;;
9712;SDS011;4895;50.926;6.870;2022-12-10T09:29:12;105.83;;;39.07;;
9712;SDS011;4895;50.926;6.870;2022-12-10T09:31:37;108.53;;;37.20;;
9712;SDS011;4895;50.926;6.870;2022-12-10T09:34:03;106.20;;;36.10;;
9712;SDS011;4895;50.926;6.870;2022-12-10T09:36:28;98.83;;;33.90;;
9712;SDS011;4895;50.926;6.870;2022-12-10T09:38:53;111.60;;;37.97;;
9712;SDS011;4895;50.926;6.870;2022-12-10T09:43:56;97.07;;;34.80;;
9712;SDS011;4895;50.926;6.870;2022-12-10T09:52:10;103.03;;;38.23;;
9712;SDS011;4895;50.926;6.870;2022-12-10T09:54:40;100.73;;;38.00;;
9712;SDS011;4895;50.926;6.870;2022-12-10T09:57:10;98.53;;;36.00;;
9712;SDS011;4895;50.926;6.870;2022-12-10T09:59:44;102.93;;;37.60;;
9712;SDS011;4895;50.926;6.870;2022-12-10T10:04:50;101.77;;;37.93;;
9712;SDS011;4895;50.926;6.870;2022-12-10T10:07:23;99.83;;;36.50;;
9712;SDS011;4895;50.926;6.870;2022-12-10T10:09:51;107.80;;;40.73;;
9712;SDS011;4895;50.926;6.870;2022-12-10T10:12:21;111.67;;;40.77;;
9712;SDS011;4895;50.926;6.870;2022-12-10T10:14:46;105.37;;;39.50;;
9712;SDS011;4895;50.926;6.870;2022-12-10T10:19:46;114.33;;;39.47;;
9712;SDS011;4895;50.926;6.870;2022-12-10T10:22:11;119.93;;;38.17;;
9712;SDS011;4895;50.926;6.870;2022-12-10T10:24:38;113.80;;;40.07;;
9712;SDS011;4895;50.926;6.870;2022-12-10T10:27:13;122.90;;;38.97;;
9712;SDS011;4895;50.926;6.870;2022-12-10T10:29:40;106.07;;;39.57;;
9712;SDS011;4895;50.926;6.870;2022-12-10T10:34:53;116.37;;;38.60;;
9712;SDS011;4895;50.926;6.870;2022-12-10T10:37:26;117.03;;;40.80;;
9712;SDS011;4895;50.926;6.870;2022-12-10T10:39:54;116.60;;;39.20;;
9712;SDS011;4895;50.926;6.870;2022-12-10T10:44:48;117.87;;;38.23;;
9712;SDS011;4895;50.926;6.870;2022-12-10T10:47:30;104.30;;;37.50;;
9712;SDS011;4895;50.926;6.870;2022-12-10T10:49:57;115.50;;;40.40;;
9712;SDS011;4895;50.926;6.870;2022-12-10T10:52:23;110.50;;;38.10;;
9712;SDS011;4895;50.926;6.870;2022-12-10T10:54:53;105.20;;;36.87;;
9712;SDS011;4895;50.926;6.870;2022-12-10T10:57:21;105.33;;;35.90;;
9712;SDS011;4895;50.926;6.870;2022-12-10T10:59:51;104.73;;;38.13;;
9712;SDS011;4895;50.926;6.870;2022-12-10T11:02:26;101.20;;;38.77;;
9712;SDS011;4895;50.926;6.870;2022-12-10T11:04:55;110.33;;;39.33;;
9712;SDS011;4895;50.926;6.870;2022-12-10T11:07:43;100.90;;;37.47;;
9712;SDS011;4895;50.926;6.870;2022-12-10T11:12:45;100.03;;;35.03;;
9712;SDS011;4895;50.926;6.870;2022-12-10T11:17:48;91.60;;;33.17;;
9712;SDS011;4895;50.926;6.870;2022-12-10T11:22:49;100.00;;;34.77;;
9712;SDS011;4895;50.926;6.870;2022-12-10T11:26:11;92.37;;;32.90;;
9712;SDS011;4895;50.926;6.870;2022-12-10T11:34:08;104.00;;;34.80;;
9712;SDS011;4895;50.926;6.870;2022-12-10T11:39:17;85.97;;;33.10;;
9712;SDS011;4895;50.926;6.870;2022-12-10T11:42:04;76.50;;;32.10;;
9712;SDS011;4895;50.926;6.870;2022-12-10T11:44:40;81.93;;;33.47;;
9712;SDS011;4895;50.926;6.870;2022-12-10T11:47:18;90.30;;;33.50;;
9712;SDS011;4895;50.926;6.870;2022-12-10T11:57:37;63.67;;;26.77;;
9712;SDS011;4895;50.926;6.870;2022-12-10T12:01:23;64.67;;;26.73;;
9712;SDS011;4895;50.926;6.870;2022-12-10T12:09:46;61.63;;;25.13;;
9712;SDS011;4895;50.926;6.870;2022-12-10T12:15:18;62.50;;;25.40;;
9712;SDS011;4895;50.926;6.870;2022-12-10T12:17:51;54.00;;;24.07;;
9712;SDS011;4895;50.926;6.870;2022-12-10T12:20:23;59.60;;;25.43;;
9712;SDS011;4895;50.926;6.870;2022-12-10T12:22:54;56.03;;;24.90;;
9712;SDS011;4895;50.926;6.870;2022-12-10T12:27:52;53.17;;;23.57;;
9712;SDS011;4895;50.926;6.870;2022-12-10T12:30:21;60.37;;;25.00;;
9712;SDS011;4895;50.926;6.870;2022-12-10T12:35:27;57.50;;;23.20;;
9712;SDS011;4895;50.926;6.870;2022-12-10T12:40:49;56.27;;;24.73;;
9712;SDS011;4895;50.926;6.870;2022-12-10T12:43:22;68.93;;;25.87;;
9712;SDS011;4895;50.926;6.870;2022-12-10T12:45:54;54.97;;;23.27;;
9712;SDS011;4895;50.926;6.870;2022-12-10T12:48:28;59.13;;;23.63;;
9712;SDS011;4895;50.926;6.870;2022-12-10T12:53:28;44.90;;;20.10;;
9712;SDS011;4895;50.926;6.870;2022-12-10T12:55:59;57.40;;;25.70;;
9712;SDS011;4895;50.926;6.870;2022-12-10T13:01:19;51.63;;;23.00;;
9712;SDS011;4895;50.926;6.870;2022-12-10T13:03:48;51.30;;;23.70;;
9712;SDS011;4895;50.926;6.870;2022-12-10T13:08:44;60.27;;;25.10;;
9712;SDS011;4895;50.926;6.870;2022-12-10T13:13:37;60.10;;;26.07;;
9712;SDS011;4895;50.926;6.870;2022-12-10T13:22:06;57.57;;;24.03;;
9712;SDS011;4895;50.926;6.870;2022-12-10T13:24:59;57.83;;;21.70;;
9712;SDS011;4895;50.926;6.870;2022-12-10T13:27:31;66.80;;;27.73;;
9712;SDS011;4895;50.926;6.870;2022-12-10T13:32:46;58.10;;;24.40;;
9712;SDS011;4895;50.926;6.870;2022-12-10T13:35:31;48.07;;;23.13;;
9712;SDS011;4895;50.926;6.870;2022-12-10T13:38:02;54.50;;;24.20;;
9712;SDS011;4895;50.926;6.870;2022-12-10T13:42:58;57.00;;;26.07;;
9712;SDS011;4895;50.926;6.870;2022-12-10T13:45:45;57.10;;;25.07;;
9712;SDS011;4895;50.926;6.870;2022-12-10T13:48:18;61.00;;;25.63;;
9712;SDS011;4895;50.926;6.870;2022-12-10T13:53:28;59.27;;;26.50;;
9712;SDS011;4895;50.926;6.870;2022-12-10T13:57:04;58.57;;;25.00;;
9712;SDS011;4895;50.926;6.870;2022-12-10T14:04:30;49.67;;;22.17;;
9712;SDS011;4895;50.926;6.870;2022-12-10T14:07:00;63.30;;;26.23;;
9712;SDS011;4895;50.926;6.870;2022-12-10T14:09:29;64.43;;;25.20;;
9712;SDS011;4895;50.926;6.870;2022-12-10T14:11:59;60.87;;;24.20;;
9712;SDS011;4895;50.926;6.870;2022-12-10T14:14:30;54.67;;;23.43;;
9712;SDS011;4895;50.926;6.870;2022-12-10T14:16:59;51.37;;;22.00;;
9712;SDS011;4895;50.926;6.870;2022-12-10T14:19:26;64.77;;;26.00;;
9712;SDS011;4895;50.926;6.870;2022-12-10T14:21:52;57.17;;;24.60;;
9712;SDS011;4895;50.926;6.870;2022-12-10T14:24:38;71.50;;;28.27;;
9712;SDS011;4895;50.926;6.870;2022-12-10T14:27:12;67.10;;;27.00;;
9712;SDS011;4895;50.926;6.870;2022-12-10T14:29:43;72.67;;;26.80;;
9712;SDS011;4895;50.926;6.870;2022-12-10T14:32:16;62.40;;;27.53;;
9712;SDS011;4895;50.926;6.870;2022-12-10T14:34:52;66.63;;;27.27;;
9712;SDS011;4895;50.926;6.870;2022-12-10T14:37:26;63.70;;;27.40;;
9712;SDS011;4895;50.926;6.870;2022-12-10T14:39:52;73.83;;;29.57;;
9712;SDS011;4895;50.926;6.870;2022-12-10T14:42:18;60.30;;;25.70;;
9712;SDS011;4895;50.926;6.870;2022-12-10T14:44:44;70.53;;;28.57;;
9712;SDS011;4895;50.926;6.870;2022-12-10T14:47:14;68.93;;;29.13;;
9712;SDS011;4895;50.926;6.870;2022-12-10T14:49:43;73.40;;;28.37;;
9712;SDS011;4895;50.926;6.870;2022-12-10T14:54:46;65.33;;;26.00;;
9712;SDS011;4895;50.926;6.870;2022-12-10T14:57:24;61.17;;;25.37;;
9712;SDS011;4895;50.926;6.870;2022-12-10T15:00:33;81.67;;;29.47;;
9712;SDS011;4895;50.926;6.870;2022-12-10T15:02:43;63.20;;;28.20;;
9712;SDS011;4895;50.926;6.870;2022-12-10T15:05:18;56.70;;;26.70;;
9712;SDS011;4895;50.926;6.870;2022-12-10T15:07:51;64.67;;;26.83;;
9712;SDS011;4895;50.926;6.870;2022-12-10T15:10:20;60.93;;;28.67;;
9712;SDS011;4895;50.926;6.870;2022-12-10T15:12:49;64.97;;;28.83;;
9712;SDS011;4895;50.926;6.870;2022-12-10T15:15:16;59.33;;;27.23;;
9712;SDS011;4895;50.926;6.870;2022-12-10T15:18:07;56.30;;;26.67;;
9712;SDS011;4895;50.926;6.870;2022-12-10T15:23:12;62.90;;;28.77;;
9712;SDS011;4895;50.926;6.870;2022-12-10T15:25:57;74.23;;;29.83;;
9712;SDS011;4895;50.926;6.870;2022-12-10T15:28:30;61.27;;;26.93;;
9712;SDS011;4895;50.926;6.870;2022-12-10T15:31:11;58.87;;;26.10;;
9712;SDS011;4895;50.926;6.870;2022-12-10T15:33:40;60.57;;;27.20;;
9712;SDS011;4895;50.926;6.870;2022-12-10T15:36:16;56.23;;;26.00;;
9712;SDS011;4895;50.926;6.870;2022-12-10T15:38:45;62.00;;;28.20;;
9712;SDS011;4895;50.926;6.870;2022-12-10T15:44:19;63.63;;;25.23;;
9712;SDS011;4895;50.926;6.870;2022-12-10T15:46:56;68.07;;;27.77;;
9712;SDS011;4895;50.926;6.870;2022-12-10T15:49:24;68.00;;;29.13;;
9712;SDS011;4895;50.926;6.870;2022-12-10T15:51:49;58.57;;;25.97;;
9712;SDS011;4895;50.926;6.870;2022-12-10T15:54:22;72.63;;;28.37;;
9712;SDS011;4895;50.926;6.870;2022-12-10T15:56:52;71.57;;;27.77;;
9712;SDS011;4895;50.926;6.870;2022-12-10T15:59:17;63.93;;;26.90;;
9712;SDS011;4895;50.926;6.870;2022-12-10T16:01:42;65.00;;;27.63;;
9712;SDS011;4895;50.926;6.870;2022-12-10T16:04:08;58.70;;;27.30;;
9712;SDS011;4895;50.926;6.870;2022-12-10T16:06:33;67.27;;;28.03;;
9712;SDS011;4895;50.926;6.870;2022-12-10T16:08:59;69.80;;;28.37;;
9712;SDS011;4895;50.926;6.870;2022-12-10T16:11:24;66.40;;;29.00;;
9712;SDS011;4895;50.926;6.870;2022-12-10T16:13:52;67.30;;;27.80;;
9712;SDS011;4895;50.926;6.870;2022-12-10T16:16:20;68.20;;;28.47;;
9712;SDS011;4895;50.926;6.870;2022-12-10T16:18:45;65.10;;;28.27;;
9712;SDS011;4895;50.926;6.870;2022-12-10T16:21:11;66.03;;;28.40;;
9712;SDS011;4895;50.926;6.870;2022-12-10T16:23:37;61.03;;;27.07;;
9712;SDS011;4895;50.926;6.870;2022-12-10T16:26:07;80.60;;;29.23;;
9712;SDS011;4895;50.926;6.870;2022-12-10T16:28:37;61.03;;;27.70;;
9712;SDS011;4895;50.926;6.870;2022-12-10T16:31:02;60.80;;;28.03;;
9712;SDS011;4895;50.926;6.870;2022-12-10T16:33:28;67.37;;;28.37;;
9712;SDS011;4895;50.926;6.870;2022-12-10T16:35:53;59.73;;;26.70;;
9712;SDS011;4895;50.926;6.870;2022-12-10T16:38:20;59.53;;;26.43;;
9712;SDS011;4895;50.926;6.870;2022-12-10T16:40:46;62.93;;;27.07;;
9712;SDS011;4895;50.926;6.870;2022-12-10T16:43:16;61.97;;;27.57;;
9712;SDS011;4895;50.926;6.870;2022-12-10T16:45:42;65.93;;;28.30;;
9712;SDS011;4895;50.926;6.870;2022-12-10T16:48:08;62.47;;;26.67;;